Time;durP1;ratioP1;P1;durP2;ratioP2;P2;SDS_P1;SDS_P2;PMS_P1;PMS_P2;Temp;Humidity;BMP_temperature;BMP_pressure;BME280_temperature;BME280_humidity;BME280_pressure;Samples;Min_cycle;Max_cycle;Signal;HPM_P1;HPM_P2
2021/07/08 00:02:02;;;;;;;3.53;2.80;;;;;;;22.44;82.21;98057.63;5051361;28;20029;-79
2021/07/08 00:04:28;;;;;;;5.97;3.25;;;;;;;22.32;82.28;98064.19;5051183;28;20078;-80
2021/07/08 00:06:54;;;;;;;7.95;4.40;;;;;;;22.27;82.87;98067.25;5051281;28;20119;-80
2021/07/08 00:09:19;;;;;;;7.22;3.40;;;;;;;22.27;82.88;98063.69;5051460;28;20104;-80
2021/07/08 00:11:45;;;;;;;4.22;2.65;;;;;;;22.16;83.49;98066.25;5051546;28;20416;-80
2021/07/08 00:14:10;;;;;;;3.42;3.08;;;;;;;22.14;83.18;98067.78;5050920;28;20028;-79
2021/07/08 00:16:37;;;;;;;4.55;3.08;;;;;;;22.19;83.16;98075.84;5051048;28;20024;-81
2021/07/08 00:19:05;;;;;;;5.07;3.05;;;;;;;22.04;83.88;98077.56;5050948;28;20029;-78
2021/07/08 00:21:31;;;;;;;9.35;3.35;;;;;;;21.93;84.37;98076.53;5050538;28;20036;-79
2021/07/08 00:23:56;;;;;;;3.97;3.40;;;;;;;21.98;84.56;98067.06;5051734;28;20021;-80
2021/07/08 00:26:21;;;;;;;3.88;3.25;;;;;;;21.98;84.05;98069.84;5053758;28;20485;-79
2021/07/08 00:28:47;;;;;;;6.28;3.08;;;;;;;22.20;83.23;98069.09;5050976;28;20481;-80
2021/07/08 00:31:12;;;;;;;4.75;2.78;;;;;;;22.03;83.73;98075.94;5050774;28;20029;-81
2021/07/08 00:33:38;;;;;;;6.47;3.30;;;;;;;22.12;83.66;98082.09;5051110;28;20447;-82
2021/07/08 00:36:04;;;;;;;8.82;3.13;;;;;;;21.98;84.18;98069.84;5050728;28;20796;-79
2021/07/08 00:38:30;;;;;;;4.65;3.00;;;;;;;21.95;83.29;98065.84;5050788;28;20041;-80
2021/07/08 00:40:56;;;;;;;4.65;3.33;;;;;;;22.11;82.78;98063.78;5050709;28;20107;-80
2021/07/08 00:43:21;;;;;;;2.90;2.70;;;;;;;22.13;82.75;98074.53;5050660;28;20476;-81
2021/07/08 00:45:47;;;;;;;4.57;3.00;;;;;;;22.06;82.74;98074.38;5050844;28;20025;-80
2021/07/08 00:48:12;;;;;;;5.13;3.08;;;;;;;22.08;83.16;98066.50;5050350;28;20045;-80
2021/07/08 00:50:42;;;;;;;2.75;2.45;;;;;;;22.11;82.75;98076.91;5032517;28;20029;-80
2021/07/08 00:53:10;;;;;;;5.05;2.22;;;;;;;21.97;83.19;98080.19;5050922;28;20021;-80
2021/07/08 00:55:35;;;;;;;2.70;2.50;;;;;;;21.86;83.58;98070.78;5051138;28;20382;-80
2021/07/08 00:58:01;;;;;;;2.88;2.40;;;;;;;21.81;83.59;98066.31;5050645;28;20025;-81
2021/07/08 01:00:30;;;;;;;3.72;2.65;;;;;;;21.76;83.82;98061.03;5050521;28;20511;-82
2021/07/08 01:02:56;;;;;;;3.30;2.20;;;;;;;21.84;83.24;98064.75;5050811;28;20024;-79
2021/07/08 01:05:27;;;;;;;6.60;3.38;;;;;;;21.78;84.13;98052.31;5050525;28;20025;-80
2021/07/08 01:07:53;;;;;;;4.53;2.78;;;;;;;21.80;83.77;98059.09;5050514;28;20044;-80
2021/07/08 01:10:19;;;;;;;2.85;2.55;;;;;;;21.71;84.17;98058.53;5050827;28;20027;-79
2021/07/08 01:12:44;;;;;;;4.72;2.90;;;;;;;21.78;83.48;98044.75;5051988;28;20029;-82
2021/07/08 01:15:11;;;;;;;2.78;2.40;;;;;;;21.82;83.84;98061.53;5056136;28;20033;-82
2021/07/08 01:17:38;;;;;;;6.57;2.83;;;;;;;21.66;84.45;98058.03;5057923;28;20041;-80
2021/07/08 01:20:06;;;;;;;3.55;3.00;;;;;;;21.65;84.71;98053.59;5056155;28;20473;-81
2021/07/08 01:22:31;;;;;;;2.58;2.33;;;;;;;21.63;85.03;98047.59;5050120;28;20078;-83
2021/07/08 01:24:57;;;;;;;3.75;2.80;;;;;;;21.78;84.20;98050.31;5051998;28;20028;-81
2021/07/08 01:27:22;;;;;;;7.03;2.88;;;;;;;21.77;84.40;98045.91;5054228;28;20406;-81
2021/07/08 01:29:48;;;;;;;3.10;2.80;;;;;;;21.69;84.78;98043.34;5054754;28;20473;-80
2021/07/08 01:32:13;;;;;;;3.03;2.58;;;;;;;21.64;85.04;98052.03;5054338;28;20039;-80
2021/07/08 01:34:40;;;;;;;2.95;2.35;;;;;;;21.49;86.04;98050.88;5054589;28;20082;-83
2021/07/08 01:37:06;;;;;;;4.38;2.85;;;;;;;21.40;86.38;98053.06;5054410;28;20036;-81
2021/07/08 01:39:31;;;;;;;4.63;3.33;;;;;;;21.34;86.78;98055.34;5054336;28;20033;-81
2021/07/08 01:41:56;;;;;;;3.90;2.45;;;;;;;21.12;88.06;98050.44;5054111;28;20021;-82
2021/07/08 01:44:22;;;;;;;3.33;2.72;;;;;;;21.20;87.67;98049.47;5035899;28;20032;-82
2021/07/08 01:46:48;;;;;;;3.40;3.00;;;;;;;21.31;87.38;98058.03;5053966;28;20025;-82
2021/07/08 01:49:13;;;;;;;4.88;2.97;;;;;;;21.22;87.12;98051.88;5053521;28;20490;-79
2021/07/08 01:51:39;;;;;;;4.00;3.60;;;;;;;21.17;87.80;98061.31;5053753;28;20425;-83
2021/07/08 01:54:09;;;;;;;3.72;3.08;;;;;;;21.02;88.29;98058.53;5054391;28;20428;-82
2021/07/08 01:56:35;;;;;;;7.35;3.05;;;;;;;21.10;87.59;98061.16;5054573;28;20029;-80
2021/07/08 01:59:01;;;;;;;3.88;3.00;;;;;;;21.03;88.16;98060.94;5053583;28;20112;-79
2021/07/08 02:01:27;;;;;;;4.22;3.15;;;;;;;20.94;88.83;98054.75;5053208;28;20009;-79
2021/07/08 02:03:52;;;;;;;4.85;3.05;;;;;;;20.86;88.96;98047.41;5053642;28;20107;-81
2021/07/08 02:06:18;;;;;;;3.67;2.78;;;;;;;20.84;89.32;98041.41;5053443;28;20013;-81
2021/07/08 02:08:45;;;;;;;7.30;3.47;;;;;;;20.85;89.53;98043.03;5053585;28;20482;-79
2021/07/08 02:11:11;;;;;;;3.47;2.70;;;;;;;21.01;87.74;98046.59;5053436;28;20029;-78
2021/07/08 02:13:38;;;;;;;6.05;3.47;;;;;;;20.90;88.14;98042.72;5053588;28;20018;-78
2021/07/08 02:16:06;;;;;;;4.22;2.88;;;;;;;21.03;87.82;98035.09;5053008;28;20033;-80
2021/07/08 02:18:32;;;;;;;2.95;2.55;;;;;;;20.96;87.59;98038.50;5052947;28;20033;-81
2021/07/08 02:20:58;;;;;;;5.20;3.33;;;;;;;20.85;88.50;98029.13;5057138;28;20032;-78
2021/07/08 02:23:23;;;;;;;3.78;2.88;;;;;;;20.80;88.55;98021.03;5053664;28;20029;-81
2021/07/08 02:25:49;;;;;;;3.80;3.38;;;;;;;20.78;88.43;98028.94;5053701;28;20753;-79
2021/07/08 02:28:14;;;;;;;4.38;3.05;;;;;;;20.75;88.42;98026.88;5053435;28;20032;-80
2021/07/08 02:30:40;;;;;;;4.63;3.35;;;;;;;20.67;88.89;98033.44;5053301;28;20057;-81
2021/07/08 02:33:07;;;;;;;7.05;3.20;;;;;;;20.94;87.94;98040.84;5053011;28;20029;-80
2021/07/08 02:35:32;;;;;;;4.75;2.90;;;;;;;21.00;87.39;98044.97;5053256;28;20036;-82
2021/07/08 02:37:58;;;;;;;5.28;3.60;;;;;;;20.94;87.62;98032.50;5053091;28;20033;-80
2021/07/08 02:40:33;;;;;;;5.68;3.40;;;;;;;20.94;87.20;98040.84;5053262;28;20108;-81
2021/07/08 02:43:00;;;;;;;3.00;2.65;;;;;;;20.80;88.04;98032.16;5053056;28;20029;-79
2021/07/08 02:45:29;;;;;;;3.92;2.97;;;;;;;20.76;88.29;98032.09;5052923;28;20020;-79
2021/07/08 02:47:57;;;;;;;7.63;3.17;;;;;;;20.84;87.60;98044.19;5034891;28;20110;-79
2021/07/08 02:50:24;;;;;;;4.07;3.17;;;;;;;20.64;89.33;98043.28;5052555;28;20036;-79
2021/07/08 02:52:50;;;;;;;5.70;3.05;;;;;;;20.66;89.18;98045.72;5052712;28;20116;-79
2021/07/08 02:55:17;;;;;;;4.43;3.13;;;;;;;20.51;89.78;98043.75;5053138;28;20084;-79
2021/07/08 02:57:45;;;;;;;4.88;3.28;;;;;;;20.41;90.55;98049.81;5052174;28;20083;-79
2021/07/08 03:00:14;;;;;;;5.90;3.20;;;;;;;20.37;91.62;98037.81;5052616;28;20381;-81
2021/07/08 03:02:39;;;;;;;4.47;3.40;;;;;;;20.44;90.19;98049.94;5052272;28;20508;-79
2021/07/08 03:05:06;;;;;;;4.47;3.28;;;;;;;20.41;90.09;98049.81;5052577;28;21010;-78
2021/07/08 03:07:33;;;;;;;5.32;3.08;;;;;;;20.41;89.61;98060.94;5032545;28;20032;-78
2021/07/08 03:09:58;;;;;;;6.55;3.08;;;;;;;20.41;89.89;98061.75;5040595;28;20409;-79
2021/07/08 03:12:24;;;;;;;7.53;2.95;;;;;;;20.13;91.05;98050.66;5034453;28;20021;-78
2021/07/08 03:14:49;;;;;;;6.03;3.45;;;;;;;20.10;91.17;98045.81;5022853;28;20032;-79
2021/07/08 03:17:15;;;;;;;4.68;3.72;;;;;;;20.03;91.64;98051.16;5032018;28;20526;-79
2021/07/08 03:19:40;;;;;;;7.40;3.58;;;;;;;19.93;92.15;98053.63;5031564;28;20029;-80
2021/07/08 03:22:05;;;;;;;6.07;3.50;;;;;;;19.90;92.23;98049.59;5031844;28;20108;-80
2021/07/08 03:24:31;;;;;;;5.43;4.18;;;;;;;19.93;92.28;98045.31;5014349;28;20056;-81
2021/07/08 03:26:56;;;;;;;6.60;4.10;;;;;;;19.97;92.37;98051.78;5030869;28;20029;-79
2021/07/08 03:29:22;;;;;;;6.13;4.30;;;;;;;19.89;92.23;98067.41;5031935;28;20087;-81
2021/07/08 03:31:47;;;;;;;4.28;3.88;;;;;;;19.89;92.70;98061.88;5031743;28;20029;-82
2021/07/08 03:34:12;;;;;;;5.95;3.83;;;;;;;20.18;91.23;98067.06;5030342;28;20029;-80
2021/07/08 03:36:38;;;;;;;7.30;4.07;;;;;;;20.33;89.58;98070.28;5031522;28;20026;-83
2021/07/08 03:39:05;;;;;;;4.47;3.88;;;;;;;20.62;88.05;98067.06;5031831;28;20029;-80
2021/07/08 03:41:30;;;;;;;9.23;3.65;;;;;;;;;;5030299;28;20029;-81
2021/07/08 03:43:56;;;;;;;4.75;4.18;;;;;;;20.62;85.85;98072.63;5031420;28;20041;-79
2021/07/08 03:46:21;;;;;;;7.82;3.55;;;;;;;20.80;84.69;98079.44;5032063;28;20037;-80
2021/07/08 03:48:47;;;;;;;4.05;3.08;;;;;;;20.89;84.31;98082.84;5030542;28;20049;-80
2021/07/08 03:51:12;;;;;;;7.22;3.97;;;;;;;21.34;82.09;98088.75;5035372;28;20033;-80
2021/07/08 03:53:38;;;;;;;5.50;3.33;;;;;;;21.51;80.15;98092.28;5035383;28;20033;-79
2021/07/08 03:56:03;;;;;;;6.95;3.25;;;;;;;21.71;79.97;98094.72;5032346;28;20025;-80
2021/07/08 03:58:29;;;;;;;5.57;3.03;;;;;;;21.79;78.90;98092.91;5031784;28;20056;-80
2021/07/08 04:00:54;;;;;;;3.75;2.92;;;;;;;21.76;78.71;98099.22;5031727;28;20025;-79
2021/07/08 04:03:20;;;;;;;6.18;2.90;;;;;;;21.94;77.56;98106.00;5040498;28;20688;-80
2021/07/08 04:05:46;;;;;;;7.22;3.10;;;;;;;22.07;77.14;98103.88;5051478;28;20040;-79
2021/07/08 04:08:13;;;;;;;5.72;3.50;;;;;;;22.19;76.37;98106.50;5050962;28;20032;-80
2021/07/08 04:10:42;;;;;;;3.25;2.70;;;;;;;22.66;74.12;98103.44;5054268;28;20099;-80
2021/07/08 04:13:14;;;;;;;5.72;2.92;;;;;;;22.42;75.17;98108.19;5038086;28;20088;-81
2021/07/08 04:15:41;;;;;;;6.03;2.67;;;;;;;22.70;74.07;98112.69;5054841;28;20061;-80
2021/07/08 04:18:07;;;;;;;5.63;3.10;;;;;;;22.65;74.62;98108.22;5052064;28;20504;-80
2021/07/08 04:20:33;;;;;;;5.95;2.95;;;;;;;22.82;75.19;98109.72;5052178;28;20060;-80
2021/07/08 04:22:59;;;;;;;5.32;3.72;;;;;;;23.03;75.96;98106.47;5051267;28;20032;-79
2021/07/08 04:25:25;;;;;;;4.85;3.83;;;;;;;23.53;74.55;98110.88;5051712;28;20370;-79
2021/07/08 04:27:51;;;;;;;8.25;4.30;;;;;;;23.59;73.77;98109.41;5051137;28;20103;-78
2021/07/08 04:30:19;;;;;;;6.65;3.60;;;;;;;23.63;73.55;98118.63;5051328;28;20437;-79
2021/07/08 04:32:45;;;;;;;8.07;3.40;;;;;;;23.76;72.87;98100.47;5051086;28;20025;-78
2021/07/08 04:35:15;;;;;;;8.43;3.38;;;;;;;23.51;74.12;98111.28;5051335;28;20474;-77
2021/07/08 04:37:41;;;;;;;7.53;3.83;;;;;;;23.52;73.99;98109.31;5051159;28;20021;-79
2021/07/08 04:40:09;;;;;;;6.15;4.30;;;;;;;23.55;73.88;98105.75;5032792;28;20029;-79
2021/07/08 04:42:35;;;;;;;5.88;4.20;;;;;;;23.27;75.63;98106.91;5053953;28;20116;-79
2021/07/08 04:45:01;;;;;;;6.93;4.05;;;;;;;22.95;76.52;98097.19;5053693;28;20068;-78
2021/07/08 04:47:26;;;;;;;4.65;3.97;;;;;;;22.71;78.00;98111.53;5030000;28;20094;-76
2021/07/08 04:49:51;;;;;;;4.78;4.10;;;;;;;22.48;79.15;98107.88;5032735;28;20453;-81
2021/07/08 04:52:17;;;;;;;7.70;4.10;;;;;;;22.41;79.27;98103.78;5031264;28;20104;-78
2021/07/08 04:54:42;;;;;;;7.32;4.70;;;;;;;22.63;78.74;98104.16;5013616;28;20026;-79
2021/07/08 04:57:08;;;;;;;6.88;3.95;;;;;;;22.42;78.60;98105.41;5030626;28;20033;-80
2021/07/08 04:59:33;;;;;;;8.02;4.30;;;;;;;22.57;78.53;98105.66;5031440;28;20056;-80
2021/07/08 05:01:58;;;;;;;6.30;4.07;;;;;;;22.79;77.50;98102.09;5017060;28;20025;-78
2021/07/08 05:04:25;;;;;;;5.65;4.13;;;;;;;22.27;78.71;98113.84;5034705;28;20040;-78
2021/07/08 05:06:50;;;;;;;7.90;4.20;;;;;;;22.15;78.40;98103.66;5034554;28;20030;-78
2021/07/08 05:09:16;;;;;;;6.13;4.50;;;;;;;22.22;79.71;98101.00;5034492;28;20104;-78
2021/07/08 05:11:42;;;;;;;6.07;4.28;;;;;;;22.74;77.80;98110.78;5036481;28;20034;-78
2021/07/08 05:14:08;;;;;;;4.97;4.47;;;;;;;22.74;77.91;98117.16;5039721;28;20098;-78
2021/07/08 05:16:33;;;;;;;7.78;4.75;;;;;;;22.61;77.84;98117.69;5033755;28;20566;-78
2021/07/08 05:18:59;;;;;;;4.75;4.13;;;;;;;22.66;78.52;98115.44;5034025;28;20022;-77
2021/07/08 05:21:24;;;;;;;11.50;4.55;;;;;;;22.85;77.03;98111.78;5033975;28;20030;-77
2021/07/08 05:23:52;;;;;;;7.28;3.70;;;;;;;23.26;75.28;98115.66;5016546;28;20041;-77
2021/07/08 05:26:18;;;;;;;4.88;3.38;;;;;;;23.39;74.38;98109.53;5049370;28;20032;-76
2021/07/08 05:28:43;;;;;;;12.00;3.83;;;;;;;23.27;75.55;98120.88;5033488;28;20044;-79
2021/07/08 05:31:08;;;;;;;9.98;4.55;;;;;;;23.57;84.38;98120.13;5034254;28;20017;-78
2021/07/08 05:33:34;;;;;;;4.22;3.58;;;;;;;23.75;78.80;98122.00;5033913;28;20033;-78
2021/07/08 05:35:59;;;;;;;5.38;3.38;;;;;;;23.76;77.22;98125.59;5034268;28;20053;-78
2021/07/08 05:38:24;;;;;;;5.13;3.42;;;;;;;23.66;78.49;98123.47;5034498;28;20732;-73
2021/07/08 05:40:50;;;;;;;4.95;3.22;;;;;;;23.37;79.81;98120.22;5034060;28;20017;-80
2021/07/08 05:43:15;;;;;;;6.55;3.22;;;;;;;23.09;81.12;98133.72;5036043;28;20032;-80
2021/07/08 05:45:40;;;;;;;5.35;2.92;;;;;;;22.91;81.83;98127.03;5019111;28;20091;-78
2021/07/08 05:48:06;;;;;;;4.82;3.92;;;;;;;22.87;82.04;98126.16;5035072;28;20064;-77
2021/07/08 05:50:31;;;;;;;4.55;3.10;;;;;;;23.04;81.07;98128.44;5033515;28;20029;-78
2021/07/08 05:52:57;;;;;;;3.58;3.05;;;;;;;23.12;78.05;98127.38;5033756;28;20079;-77
2021/07/08 05:55:22;;;;;;;6.53;2.88;;;;;;;23.03;82.23;98117.66;5033955;28;20105;-78
2021/07/08 05:57:48;;;;;;;4.93;2.80;;;;;;;23.12;79.10;98119.00;5032395;28;20026;-78
2021/07/08 06:00:17;;;;;;;6.40;2.95;;;;;;;23.40;79.41;98122.28;5033577;28;20034;-79
2021/07/08 06:02:42;;;;;;;7.35;3.38;;;;;;;23.40;76.78;98122.28;5033555;28;20021;-80
2021/07/08 06:05:09;;;;;;;3.65;3.25;;;;;;;23.45;78.44;98124.78;5023610;28;20390;-78
2021/07/08 06:07:34;;;;;;;3.67;2.63;;;;;;;23.69;76.14;98128.28;5050511;28;20068;-79
2021/07/08 06:10:00;;;;;;;3.88;3.10;;;;;;;23.55;77.90;98130.91;5052673;28;20053;-74
2021/07/08 06:12:28;;;;;;;7.00;3.63;;;;;;;23.33;83.24;98116.59;5052345;28;20083;-76
2021/07/08 06:14:53;;;;;;;3.50;3.00;;;;;;;23.00;84.94;98124.78;5045603;28;20343;-74
2021/07/08 06:17:19;;;;;;;5.03;3.22;;;;;;;22.92;86.66;98135.03;5032538;28;20044;-74
2021/07/08 06:19:44;;;;;;;3.65;2.78;;;;;;;22.84;82.32;98138.84;5040209;28;20037;-74
2021/07/08 06:22:09;;;;;;;5.40;3.03;;;;;;;22.94;81.99;98134.66;5042895;28;20026;-72
2021/07/08 06:24:35;;;;;;;3.88;3.00;;;;;;;22.82;84.18;98134.84;5041910;28;20092;-71
2021/07/08 06:27:00;;;;;;;5.68;2.78;;;;;;;22.69;88.15;98131.41;5041745;28;20598;-74
2021/07/08 06:29:26;;;;;;;3.63;3.30;;;;;;;22.49;90.83;98145.75;5040560;28;20057;-75
2021/07/08 06:31:51;;;;;;;3.85;2.80;;;;;;;22.63;84.44;98151.56;5022277;28;20040;-73
2021/07/08 06:34:16;;;;;;;5.28;2.75;;;;;;;22.87;82.17;98154.03;5021564;28;20025;-76
2021/07/08 06:36:42;;;;;;;3.47;3.17;;;;;;;22.95;82.28;98150.22;5040886;28;20037;-74
2021/07/08 06:39:08;;;;;;;6.20;2.90;;;;;;;23.20;79.28;98157.03;5048443;28;20021;-73
2021/07/08 06:41:33;;;;;;;8.80;3.63;;;;;;;23.47;78.66;98146.72;5042845;28;20442;-74
2021/07/08 06:43:59;;;;;;;9.13;4.03;;;;;;;23.37;82.52;98156.50;5042261;28;20036;-73
2021/07/08 06:46:29;;;;;;;3.35;2.50;;;;;;;23.40;78.07;98160.56;5020054;28;20144;-74
2021/07/08 06:48:56;;;;;;;4.45;2.72;;;;;;;23.58;78.93;98156.09;5038283;28;20045;-74
2021/07/08 06:51:22;;;;;;;6.93;3.00;;;;;;;23.44;79.70;98158.66;5038150;28;20100;-75
2021/07/08 06:53:48;;;;;;;6.13;3.17;;;;;;;23.37;78.60;98155.69;5037151;28;20109;-74
2021/07/08 06:56:14;;;;;;;2.47;2.28;;;;;;;23.49;79.03;98151.94;5038660;28;20482;-75
2021/07/08 06:58:39;;;;;;;4.97;2.90;;;;;;;23.78;73.94;98156.75;5038865;28;20040;-73
2021/07/08 07:01:04;;;;;;;10.48;3.35;;;;;;;23.86;72.75;98156.50;5040543;28;20035;-75
2021/07/08 07:03:34;;;;;;;3.60;3.03;;;;;;;23.81;75.59;98150.41;5031345;28;20033;-74
2021/07/08 07:06:00;;;;;;;4.35;3.17;;;;;;;24.03;73.15;98143.94;5046644;28;20025;-75
2021/07/08 07:08:25;;;;;;;4.65;3.28;;;;;;;24.04;71.57;98145.56;5043321;28;20025;-74
2021/07/08 07:10:51;;;;;;;5.07;2.80;;;;;;;23.89;77.01;98144.56;5015635;28;20450;-75
2021/07/08 07:13:16;;;;;;;8.20;3.33;;;;;;;24.08;70.41;98152.00;5046949;28;20029;-75
2021/07/08 07:15:41;;;;;;;5.13;3.50;;;;;;;24.04;74.95;98144.75;5049178;28;20531;-75
2021/07/08 07:18:07;;;;;;;7.07;3.03;;;;;;;24.27;73.56;98143.50;5042571;28;20041;-74
2021/07/08 07:20:34;;;;;;;4.88;3.13;;;;;;;24.35;73.18;98147.19;5030500;28;20549;-74
2021/07/08 07:23:00;;;;;;;4.50;3.38;;;;;;;24.61;70.66;98149.91;5046507;28;20036;-75
2021/07/08 07:25:28;;;;;;;4.55;3.60;;;;;;;24.87;69.32;98138.59;5052768;28;20033;-75
2021/07/08 07:27:55;;;;;;;4.53;2.90;;;;;;;24.87;68.27;98149.78;5051305;28;20053;-76
2021/07/08 07:30:23;;;;;;;4.75;2.92;;;;;;;25.01;67.77;98143.53;5050886;28;20025;-75
2021/07/08 07:32:52;;;;;;;6.22;3.60;;;;;;;25.11;68.78;98142.81;5033897;28;20366;-76
2021/07/08 07:35:18;;;;;;;5.60;3.38;;;;;;;25.41;65.96;98137.06;5034099;28;20025;-73
2021/07/08 07:37:44;;;;;;;4.88;3.40;;;;;;;25.38;65.94;98135.84;5051812;28;20025;-74
2021/07/08 07:40:10;;;;;;;10.02;4.15;;;;;;;25.52;67.38;98136.00;5051930;28;20037;-72
2021/07/08 07:42:36;;;;;;;11.80;4.57;;;;;;;25.51;66.50;98139.19;5052142;28;20033;-74
2021/07/08 07:45:04;;;;;;;5.95;3.53;;;;;;;25.67;65.11;98136.88;5051879;28;20029;-74
2021/07/08 07:47:29;;;;;;;7.55;3.65;;;;;;;25.51;68.21;98139.19;5051578;28;20045;-74
2021/07/08 07:49:55;;;;;;;10.43;4.28;;;;;;;25.13;68.86;98139.63;5052081;28;20029;-72
2021/07/08 07:52:20;;;;;;;4.15;2.97;;;;;;;25.50;65.56;98152.38;5033836;28;20029;-74
2021/07/08 07:54:46;;;;;;;8.27;4.07;;;;;;;25.69;66.97;98150.50;5053102;28;20052;-74
2021/07/08 07:57:12;;;;;;;3.72;3.35;;;;;;;25.85;65.82;98156.63;5055324;28;20116;-73
2021/07/08 07:59:38;;;;;;;8.45;3.95;;;;;;;25.94;62.97;98157.06;5051813;28;20473;-73
2021/07/08 08:02:10;;;;;;;6.65;4.22;;;;;;;26.34;63.59;98153.31;5051662;28;20477;-74
2021/07/08 08:04:42;;;;;;;9.00;3.70;;;;;;;26.36;62.33;98153.72;5051452;28;20489;-73
2021/07/08 08:09:51;;;;;;;5.45;3.53;;;;;;;26.51;62.95;98147.75;5051421;28;20036;-75
2021/07/08 08:12:16;;;;;;;6.80;4.10;;;;;;;26.38;63.34;98142.88;5050907;28;20029;-73
2021/07/08 08:14:42;;;;;;;6.97;4.40;;;;;;;26.24;62.14;98135.22;5051385;28;20528;-73
2021/07/08 08:17:07;;;;;;;6.38;3.28;;;;;;;26.43;65.33;98146.13;5051202;28;20044;-72
2021/07/08 08:19:33;;;;;;;4.55;3.85;;;;;;;26.77;61.37;98143.81;5051105;28;20025;-73
2021/07/08 08:21:58;;;;;;;3.83;3.47;;;;;;;27.01;61.69;98128.25;5051063;28;20479;-73
2021/07/08 08:24:24;;;;;;;7.82;3.63;;;;;;;27.17;60.29;98128.66;5050795;28;20021;-74
2021/07/08 08:26:53;;;;;;;7.75;3.72;;;;;;;27.37;61.01;98131.88;5048656;28;20031;-74
2021/07/08 08:29:19;;;;;;;4.07;3.08;;;;;;;27.35;58.15;98137.06;5031056;28;20029;-74
2021/07/08 08:31:45;;;;;;;8.73;3.08;;;;;;;27.46;61.13;98135.91;5029978;28;20079;-73
2021/07/08 08:34:10;;;;;;;5.32;3.60;;;;;;;27.62;60.51;98133.50;5031252;28;20030;-73
2021/07/08 08:36:37;;;;;;;14.90;3.92;;;;;;;27.29;59.06;98131.06;5031337;28;20140;-73
2021/07/08 08:39:03;;;;;;;9.40;3.10;;;;;;;27.49;58.80;98126.69;5030853;28;20553;-73
2021/07/08 08:41:28;;;;;;;6.57;3.80;;;;;;;27.47;59.28;98134.69;5030884;28;20037;-74
2021/07/08 08:43:54;;;;;;;6.85;3.42;;;;;;;27.37;61.63;98146.75;5048811;28;20028;-74
2021/07/08 08:46:20;;;;;;;4.18;3.78;;;;;;;27.80;58.74;98150.34;5053543;28;20108;-73
2021/07/08 08:48:45;;;;;;;7.03;4.10;;;;;;;27.95;59.27;98159.53;5036192;28;20129;-73
2021/07/08 08:51:11;;;;;;;9.20;3.65;;;;;;;28.08;57.38;98155.13;5050514;28;20025;-74
2021/07/08 08:53:36;;;;;;;3.90;3.17;;;;;;;28.10;57.35;98150.69;5049971;28;20028;-74
2021/07/08 08:56:02;;;;;;;4.68;3.70;;;;;;;28.17;56.88;98155.50;5050805;28;20025;-74
2021/07/08 08:58:27;;;;;;;4.90;2.97;;;;;;;28.37;56.71;98158.66;5050190;28;20033;-74
2021/07/08 09:00:55;;;;;;;10.65;4.35;;;;;;;28.51;55.58;98156.56;5044893;28;20072;-75
2021/07/08 09:03:26;;;;;;;7.43;3.50;;;;;;;28.56;56.30;98153.34;5030364;28;20025;-76
2021/07/08 09:06:06;;;;;;;4.93;3.60;;;;;;;28.57;56.46;98149.28;5031895;28;20025;-74
2021/07/08 09:08:53;;;;;;;11.98;3.88;;;;;;;28.73;54.71;98143.19;5044229;28;20025;-74
2021/07/08 09:11:20;;;;;;;5.97;3.88;;;;;;;28.69;56.88;98145.25;5045054;28;20401;-74
2021/07/08 09:14:06;;;;;;;5.78;3.10;;;;;;;28.68;55.59;98138.81;5040420;28;20086;-73
2021/07/08 09:16:31;;;;;;;;;;;;;;;28.87;56.15;98137.50;5039158;28;20017;-74
2021/07/08 09:18:59;;;;;;;;;;;;;;;28.81;56.28;98141.16;5038417;28;20292;-74
2021/07/08 09:21:25;;;;;;;5.32;3.13;;;;;;;28.65;56.18;98145.28;5043279;28;19923;-74
2021/07/08 09:24:24;;;;;;;4.13;3.13;;;;;;;28.65;55.43;98139.63;5044242;28;20408;-74
2021/07/08 09:27:07;;;;;;;7.38;3.55;;;;;;;28.96;56.82;98131.41;5041445;28;20056;-73
2021/07/08 09:29:35;;;;;;;6.60;3.88;;;;;;;28.51;56.58;98127.59;5038058;28;20128;-74
2021/07/08 09:32:06;;;;;;;5.45;3.35;;;;;;;28.87;56.05;98142.31;5020822;28;20452;-74
2021/07/08 09:34:34;;;;;;;5.68;4.72;;;;;;;28.96;57.93;98139.84;5039730;28;20032;-74
2021/07/08 09:37:06;;;;;;;4.05;3.63;;;;;;;29.21;57.78;98146.13;5037452;28;20049;-74
2021/07/08 09:39:34;;;;;;;4.80;3.42;;;;;;;29.36;56.63;98149.66;5029944;28;20021;-73
2021/07/08 09:42:00;;;;;;;6.43;3.63;;;;;;;29.33;54.27;98148.47;5042117;28;20032;-72
2021/07/08 09:44:27;;;;;;;5.78;3.33;;;;;;;29.32;55.25;98146.84;5041197;28;20469;-73
2021/07/08 09:46:54;;;;;;;7.15;3.45;;;;;;;29.48;53.22;98147.13;5046915;28;20020;-74
2021/07/08 09:49:21;;;;;;;3.75;3.33;;;;;;;29.62;54.46;98149.03;5055354;28;20073;-75
2021/07/08 09:51:46;;;;;;;10.15;4.18;;;;;;;29.72;54.95;98142.50;5054010;28;20025;-73
2021/07/08 09:54:25;;;;;;;6.40;3.40;;;;;;;29.69;54.89;98138.50;5053726;28;20440;-73
2021/07/08 09:56:54;;;;;;;3.95;3.35;;;;;;;29.59;54.82;98135.75;5053850;28;20033;-74
2021/07/08 09:59:21;;;;;;;12.88;3.67;;;;;;;29.39;54.66;98134.72;5053275;28;20033;-73
2021/07/08 10:01:57;;;;;;;6.13;4.05;;;;;;;29.50;54.93;98138.25;5052174;28;20029;-74
2021/07/08 10:04:24;;;;;;;4.35;3.60;;;;;;;29.54;54.17;98139.81;5052930;28;20032;-74
2021/07/08 10:06:51;;;;;;;4.18;3.50;;;;;;;29.55;53.83;98147.06;5052903;28;20029;-76
2021/07/08 10:09:18;;;;;;;5.28;3.55;;;;;;;29.76;53.25;98152.50;5052593;28;20033;-73
2021/07/08 10:11:50;;;;;;;3.30;2.95;;;;;;;29.98;53.86;98150.28;5035075;28;20061;-73
2021/07/08 10:14:17;;;;;;;3.50;3.10;;;;;;;30.02;52.38;98136.97;5052805;28;20055;-73
2021/07/08 10:16:48;;;;;;;5.45;4.28;;;;;;;30.10;51.61;98144.13;5034544;28;20477;-74
2021/07/08 10:19:17;;;;;;;3.92;2.83;;;;;;;30.29;52.52;98135.00;5053269;28;20441;-76
2021/07/08 10:21:43;;;;;;;7.97;3.58;;;;;;;30.22;50.42;98134.31;5052700;28;20071;-74
2021/07/08 10:24:09;;;;;;;4.75;3.65;;;;;;;30.24;49.46;98132.66;5052928;28;20029;-74
2021/07/08 10:26:36;;;;;;;9.90;2.83;;;;;;;30.32;49.97;98133.41;5053477;28;20079;-74
2021/07/08 10:29:02;;;;;;;4.68;3.22;;;;;;;30.43;48.86;98127.63;5052802;28;20029;-74
2021/07/08 10:31:28;;;;;;;3.50;3.00;;;;;;;30.53;48.87;98124.69;5052792;28;20033;-74
2021/07/08 10:34:14;;;;;;;5.97;2.78;;;;;;;30.63;47.85;98126.56;5053051;28;20108;-75
2021/07/08 10:36:43;;;;;;;4.50;2.95;;;;;;;30.79;49.46;98128.75;5052727;28;20548;-74
2021/07/08 10:39:11;;;;;;;3.63;2.20;;;;;;;31.06;49.54;98121.13;5052255;28;20099;-74
2021/07/08 10:41:36;;;;;;;6.20;2.70;;;;;;;31.02;47.27;98119.56;5052550;28;20102;-74
2021/07/08 10:44:02;;;;;;;6.88;2.80;;;;;;;31.13;47.89;98118.19;5052476;28;20021;-74
2021/07/08 10:46:37;;;;;;;3.42;2.83;;;;;;;31.10;47.16;98116.22;5052545;28;20063;-75
2021/07/08 10:49:12;;;;;;;3.50;3.10;;;;;;;31.07;46.66;98116.25;5052401;28;20045;-75
2021/07/08 10:51:39;;;;;;;4.70;2.17;;;;;;;31.03;45.82;98124.00;5052379;28;20041;-76
2021/07/08 10:54:24;;;;;;;4.43;2.35;;;;;;;31.10;44.92;98126.72;5034775;28;20036;-74
2021/07/08 10:56:50;;;;;;;5.32;2.92;;;;;;;31.24;47.11;98115.16;5052865;28;20032;-73
2021/07/08 10:59:17;;;;;;;8.27;3.13;;;;;;;31.57;48.15;98111.41;5052284;28;20032;-73
2021/07/08 11:01:44;;;;;;;7.60;4.93;;;;;;;31.73;46.67;98100.19;5052413;28;20389;-74
2021/07/08 11:04:11;;;;;;;4.78;3.45;;;;;;;31.83;46.85;98104.03;5034627;28;20052;-76
2021/07/08 11:06:43;;;;;;;7.72;3.47;;;;;;;31.83;45.97;98106.88;5034445;28;20397;-76
2021/07/08 11:09:13;;;;;;;6.88;2.78;;;;;;;31.87;46.17;98113.28;5052500;28;20439;-74
2021/07/08 11:11:38;;;;;;;5.38;2.47;;;;;;;32.10;44.91;98112.47;5052112;28;20029;-73
2021/07/08 11:14:07;;;;;;;5.53;2.55;;;;;;;32.17;44.12;98101.00;5052766;28;20429;-73
2021/07/08 11:16:46;;;;;;;5.57;3.00;;;;;;;32.24;43.67;98092.34;5034026;28;20028;-74
2021/07/08 11:19:33;;;;;;;3.00;2.70;;;;;;;31.95;41.95;98099.78;5052433;28;20392;-75
2021/07/08 11:22:04;;;;;;;5.60;2.45;;;;;;;31.87;42.50;98101.94;5051878;28;20460;-74
2021/07/08 11:24:48;;;;;;;3.85;2.25;;;;;;;31.95;42.14;98105.47;5034361;28;20032;-75
2021/07/08 11:27:17;;;;;;;3.67;2.20;;;;;;;32.04;42.74;98106.50;5034604;28;20099;-75
2021/07/08 11:29:48;;;;;;;4.00;2.25;;;;;;;32.00;43.11;98110.59;5052182;28;20009;-74
2021/07/08 11:32:18;;;;;;;11.63;2.78;;;;;;;31.84;43.11;98116.97;5052015;28;20028;-74
2021/07/08 11:34:52;;;;;;;3.72;2.22;;;;;;;31.64;43.55;98113.31;5033597;28;20033;-73
2021/07/08 11:37:21;;;;;;;2.50;1.85;;;;;;;31.53;44.74;98113.50;5048789;28;20033;-74